Time;durP1;ratioP1;P1;durP2;ratioP2;P2;SDS_P1;SDS_P2;PMS_P1;PMS_P2;Temp;Humidity;BMP_temperature;BMP_pressure;BME280_temperature;BME280_humidity;BME280_pressure;Samples;Min_cycle;Max_cycle;Signal;HPM_P1;HPM_P2
2022/04/18 00:00:33;;;;;;;3.70;2.60;;;;;;;7.78;47.12;96996.25;5035670;28;20174;-67
2022/04/18 00:03:03;;;;;;;3.90;3.20;;;;;;;7.90;46.78;97002.44;5035118;28;20230;-68
2022/04/18 00:05:32;;;;;;;3.47;2.80;;;;;;;7.79;47.07;96997.03;5034989;28;20226;-68
2022/04/18 00:07:57;;;;;;;4.13;3.13;;;;;;;7.68;47.14;96995.84;5035558;28;20274;-68
2022/04/18 00:10:22;;;;;;;3.20;2.40;;;;;;;7.69;47.29;96986.22;5034674;28;20265;-68
2022/04/18 00:12:48;;;;;;;3.87;3.00;;;;;;;7.85;46.86;96997.03;5033962;28;20186;-66
2022/04/18 00:15:13;;;;;;;2.53;2.33;;;;;;;7.81;46.68;96987.19;5034593;28;20186;-68
2022/04/18 00:17:39;;;;;;;3.17;2.67;;;;;;;7.67;47.56;96985.63;5017373;28;20182;-67
2022/04/18 00:20:05;;;;;;;3.30;2.90;;;;;;;7.56;47.82;96981.81;5034957;28;20202;-68
2022/04/18 00:22:31;;;;;;;2.80;2.60;;;;;;;7.69;47.44;96987.00;5034466;28;20183;-67
2022/04/18 00:24:56;;;;;;;4.83;2.70;;;;;;;7.69;47.59;96981.00;5034154;28;20182;-68
2022/04/18 00:27:21;;;;;;;3.10;2.80;;;;;;;7.60;47.59;96984.81;5034707;28;20611;-66
2022/04/18 00:29:50;;;;;;;5.87;2.73;;;;;;;7.44;47.91;96978.22;5034723;28;20321;-67
2022/04/18 00:32:16;;;;;;;4.37;2.70;;;;;;;7.46;47.90;96971.81;5034784;28;20236;-68
2022/04/18 00:34:42;;;;;;;3.17;2.63;;;;;;;7.69;47.44;96981.00;5034645;28;20191;-67
2022/04/18 00:37:07;;;;;;;3.30;2.70;;;;;;;7.59;47.42;96978.00;5034472;28;20189;-68
2022/04/18 00:39:33;;;;;;;4.27;2.80;;;;;;;7.65;47.34;96978.00;5034092;28;20181;-67
2022/04/18 00:41:58;;;;;;;3.37;2.57;;;;;;;7.45;48.04;96977.22;5034454;28;20183;-67
2022/04/18 00:44:24;;;;;;;2.93;2.70;;;;;;;7.24;48.77;96983.44;5033559;28;20191;-67
2022/04/18 00:46:49;;;;;;;3.10;2.40;;;;;;;7.25;48.49;96972.00;5016388;28;20206;-67
2022/04/18 00:49:14;;;;;;;2.93;2.30;;;;;;;7.16;49.45;96973.22;5016452;28;20237;-66
2022/04/18 00:51:40;;;;;;;3.40;2.30;;;;;;;7.16;49.19;96965.38;5016394;28;20402;-67
2022/04/18 00:54:05;;;;;;;2.73;2.37;;;;;;;7.18;49.34;96967.81;5033895;28;20186;-68
2022/04/18 00:56:32;;;;;;;3.17;2.87;;;;;;;7.17;49.14;96963.59;5034180;28;20187;-67
2022/04/18 00:58:58;;;;;;;3.60;2.70;;;;;;;7.24;49.08;96962.59;5033038;28;20186;-69
2022/04/18 01:01:23;;;;;;;5.10;2.60;;;;;;;7.25;48.49;96960.75;5033988;28;20188;-65
2022/04/18 01:03:49;;;;;;;3.13;2.83;;;;;;;7.27;49.05;96953.56;5033547;28;20230;-66
2022/04/18 01:06:15;;;;;;;2.87;2.50;;;;;;;7.29;49.17;96954.97;5016066;28;20213;-68
2022/04/18 01:08:42;;;;;;;2.60;2.40;;;;;;;7.32;49.07;96954.56;5033085;28;20563;-67
2022/04/18 01:11:09;;;;;;;2.90;2.70;;;;;;;7.24;49.69;96949.56;5033938;28;20236;-67
2022/04/18 01:13:47;;;;;;;2.97;2.50;;;;;;;7.35;49.04;96946.34;5033692;28;20325;-68
2022/04/18 01:16:14;;;;;;;2.67;2.47;;;;;;;7.27;49.52;96945.72;5034119;28;20516;-68
2022/04/18 01:18:39;;;;;;;2.90;2.63;;;;;;;7.40;48.87;96949.16;5015213;28;20183;-68
2022/04/18 01:21:09;;;;;;;3.30;2.63;;;;;;;7.49;48.46;96947.13;5033413;28;20175;-67
2022/04/18 01:23:35;;;;;;;5.63;2.97;;;;;;;7.48;48.49;96943.72;5015979;28;20183;-67
2022/04/18 01:28:59;;;;;;;3.93;2.73;;;;;;;7.40;48.83;96945.75;5017772;28;20236;-67
2022/04/18 01:31:28;;;;;;;3.10;2.90;;;;;;;7.36;48.93;96934.09;5033247;28;20620;-68
2022/04/18 01:33:54;;;;;;;6.27;2.97;;;;;;;7.32;48.85;96931.09;5015953;28;20198;-67
2022/04/18 01:36:20;;;;;;;2.90;2.63;;;;;;;7.16;49.73;96928.91;5032943;28;20190;-67
2022/04/18 01:38:45;;;;;;;3.77;2.93;;;;;;;7.08;50.11;96923.88;5032184;28;20209;-68
2022/04/18 01:41:10;;;;;;;3.53;3.00;;;;;;;7.09;49.97;96922.88;5033377;28;20179;-68
2022/04/18 01:43:36;;;;;;;3.67;3.00;;;;;;;7.13;49.91;96920.69;5031829;28;20179;-67
2022/04/18 01:46:01;;;;;;;3.27;2.80;;;;;;;7.13;50.20;96915.47;5033103;28;20226;-67
2022/04/18 01:48:27;;;;;;;3.10;2.87;;;;;;;7.06;49.99;96916.28;5033058;28;20618;-68
2022/04/18 01:50:52;;;;;;;3.40;3.10;;;;;;;7.07;50.10;96912.69;5033207;28;20183;-67
2022/04/18 01:53:18;;;;;;;3.00;2.80;;;;;;;7.07;49.76;96917.09;5033064;28;20193;-68
2022/04/18 01:55:43;;;;;;;3.20;2.90;;;;;;;7.02;50.52;96919.50;5033220;28;20186;-66
2022/04/18 01:58:09;;;;;;;3.27;2.97;;;;;;;6.74;50.95;96913.66;5033438;28;20199;-67
2022/04/18 02:00:35;;;;;;;3.43;3.10;;;;;;;6.85;51.29;96924.28;5032581;28;20194;-67
2022/04/18 02:03:00;;;;;;;4.93;3.10;;;;;;;6.87;50.69;96917.06;5032934;28;20234;-68
2022/04/18 02:05:26;;;;;;;3.87;3.20;;;;;;;6.97;50.67;96921.88;5032792;28;20195;-67
2022/04/18 02:07:51;;;;;;;3.60;3.00;;;;;;;6.74;51.25;96906.66;5032692;28;20197;-67
2022/04/18 02:10:16;;;;;;;3.77;3.27;;;;;;;6.66;51.49;96909.44;5032786;28;20187;-67
2022/04/18 02:12:42;;;;;;;4.83;3.20;;;;;;;6.81;51.40;96911.84;5032986;28;20217;-67
2022/04/18 02:15:08;;;;;;;3.70;2.73;;;;;;;6.78;51.47;96909.66;5032491;28;20269;-67
2022/04/18 02:17:34;;;;;;;4.23;3.10;;;;;;;6.80;51.34;96900.63;5016971;28;20187;-67
2022/04/18 02:19:59;;;;;;;3.43;3.13;;;;;;;6.50;52.19;96902.00;5032260;28;20256;-68
2022/04/18 02:22:25;;;;;;;3.20;2.90;;;;;;;6.62;51.90;96911.66;5032442;28;20220;-67
2022/04/18 02:24:51;;;;;;;4.47;3.27;;;;;;;6.63;51.80;96900.22;5032497;28;20193;-66
2022/04/18 02:27:16;;;;;;;7.07;3.57;;;;;;;6.71;51.67;96898.41;5032735;28;20193;-67
2022/04/18 02:29:43;;;;;;;3.57;3.20;;;;;;;6.64;51.88;96898.41;5032235;28;20187;-68
2022/04/18 02:34:52;;;;;;;3.40;3.10;;;;;;;6.58;52.24;96894.78;5032359;28;20269;-67
2022/04/18 02:37:18;;;;;;;3.93;3.57;;;;;;;6.66;52.06;96891.22;5031795;28;20616;-68
2022/04/18 02:39:43;;;;;;;5.50;3.07;;;;;;;6.69;52.06;96890.78;5032325;28;20194;-68
2022/04/18 02:42:08;;;;;;;3.80;3.23;;;;;;;6.58;52.56;96886.19;5032109;28;20191;-67
2022/04/18 02:44:35;;;;;;;4.63;3.63;;;;;;;6.71;52.25;96888.81;5014647;28;20204;-67
2022/04/18 02:47:00;;;;;;;5.17;3.83;;;;;;;6.73;52.11;96886.81;5032331;28;20210;-67
2022/04/18 02:49:26;;;;;;;4.17;3.60;;;;;;;6.85;51.35;96882.63;5032511;28;20193;-67
2022/04/18 02:51:51;;;;;;;3.50;3.20;;;;;;;6.73;52.19;96884.22;5032097;28;20187;-68
2022/04/18 02:54:16;;;;;;;4.10;3.20;;;;;;;6.72;52.24;96876.59;5031998;28;20660;-67
2022/04/18 02:56:42;;;;;;;3.47;3.13;;;;;;;6.61;52.26;96873.59;5014879;28;20198;-67
2022/04/18 02:59:07;;;;;;;3.20;3.00;;;;;;;6.60;52.47;96876.38;5032285;28;20179;-68
2022/04/18 03:01:32;;;;;;;5.20;3.50;;;;;;;6.71;52.51;96872.38;5032063;28;20262;-67
2022/04/18 03:03:58;;;;;;;3.60;2.97;;;;;;;6.51;52.52;96873.19;5031996;28;20313;-67
2022/04/18 03:06:23;;;;;;;4.73;3.17;;;;;;;6.41;53.24;96864.94;5031639;28;20704;-67
2022/04/18 03:08:49;;;;;;;3.20;3.00;;;;;;;6.43;53.15;96864.75;5032386;28;20183;-66
2022/04/18 03:11:14;;;;;;;4.70;3.30;;;;;;;6.45;52.63;96866.16;5032014;28;20175;-68
2022/04/18 03:13:47;;;;;;;3.33;3.00;;;;;;;6.44;52.60;96861.94;5032131;28;20187;-67
2022/04/18 03:16:13;;;;;;;3.70;3.33;;;;;;;6.50;52.43;96866.34;5031575;28;20171;-68
2022/04/18 03:18:39;;;;;;;3.50;3.05;;;;;;;6.67;52.07;96859.78;5030426;28;20928;-68
2022/04/18 03:21:05;;;;;;;4.32;3.13;;;;;;;6.67;52.29;96864.97;5030701;28;20403;-66
2022/04/18 03:23:31;;;;;;;3.37;3.07;;;;;;;6.81;51.89;96868.38;5031289;28;20392;-67
2022/04/18 03:25:57;;;;;;;4.07;2.97;;;;;;;6.97;51.77;96864.56;5030619;28;20900;-68
2022/04/18 03:28:23;;;;;;;3.40;3.10;;;;;;;6.72;52.49;96859.16;5034026;28;20494;-67
2022/04/18 03:30:49;;;;;;;3.58;2.95;;;;;;;6.64;52.30;96860.16;5034568;28;20417;-68
2022/04/18 03:33:14;;;;;;;4.10;3.40;;;;;;;6.58;52.33;96860.94;5034082;28;20399;-67
2022/04/18 03:39:50;;;;;;;3.88;2.92;;;;;;;6.66;52.17;96850.34;5034575;28;20410;-68
2022/04/18 03:41:09;;;;;;;3.90;3.30;;;;;;;6.42;53.06;96863.94;5034164;28;20489;-67
2022/04/18 03:43:35;;;;;;;3.47;3.07;;;;;;;6.20;53.70;96860.69;5033782;28;20474;-68
2022/04/18 03:46:00;;;;;;;3.28;2.97;;;;;;;6.30;52.70;96856.94;5034392;28;20501;-67
2022/04/18 03:48:26;;;;;;;3.60;2.90;;;;;;;6.24;52.95;96859.28;5034072;28;20395;-69
2022/04/18 03:50:51;;;;;;;4.10;3.00;;;;;;;6.19;52.89;96850.47;5033860;28;20830;-68
2022/04/18 03:53:17;;;;;;;3.58;2.88;;;;;;;5.98;53.14;96848.03;5016489;28;20391;-68
2022/04/18 03:55:42;;;;;;;4.20;2.80;;;;;;;5.99;52.92;96850.44;5033571;28;20395;-68
2022/04/18 03:58:07;;;;;;;3.77;2.90;;;;;;;5.87;52.49;96846.78;5035331;28;20548;-68
2022/04/18 04:00:34;;;;;;;4.07;2.97;;;;;;;5.84;52.71;96845.38;5016364;28;20422;-66
2022/04/18 04:03:00;;;;;;;3.33;3.00;;;;;;;5.83;52.63;96838.56;5033074;28;20451;-68
2022/04/18 04:05:26;;;;;;;3.30;2.67;;;;;;;5.92;52.32;96844.41;5016005;28;20453;-68
2022/04/18 04:07:51;;;;;;;3.67;2.87;;;;;;;5.85;52.13;96843.56;5033965;28;20457;-67
2022/04/18 04:10:16;;;;;;;3.88;3.05;;;;;;;5.96;51.44;96847.44;5016214;28;20395;-67
2022/04/18 04:12:42;;;;;;;3.60;2.80;;;;;;;5.84;52.04;96844.56;5033594;28;20497;-67
2022/04/18 04:15:07;;;;;;;3.25;2.92;;;;;;;5.94;50.80;96846.81;5033673;28;20395;-68
2022/04/18 04:17:33;;;;;;;3.53;2.88;;;;;;;6.11;51.12;96842.88;5033929;28;20399;-69
2022/04/18 04:19:58;;;;;;;3.10;2.80;;;;;;;6.06;50.82;96838.25;5033473;28;20419;-67
2022/04/18 04:22:24;;;;;;;3.37;3.07;;;;;;;5.98;51.54;96838.41;5033676;28;20514;-67
2022/04/18 04:24:49;;;;;;;2.83;2.53;;;;;;;5.86;51.63;96840.75;5033548;28;20427;-68
2022/04/18 04:27:14;;;;;;;3.90;2.90;;;;;;;5.91;51.89;96844.63;5015599;28;20430;-67
2022/04/18 04:29:40;;;;;;;2.80;2.60;;;;;;;5.88;52.38;96842.41;5033766;28;20395;-67
2022/04/18 04:32:05;;;;;;;2.97;2.70;;;;;;;5.76;52.70;96837.72;5033789;28;20395;-68
2022/04/18 04:34:31;;;;;;;3.55;2.92;;;;;;;5.78;52.94;96837.53;5032984;28;20497;-68
2022/04/18 04:36:56;;;;;;;3.90;2.77;;;;;;;6.04;51.98;96836.84;5032808;28;20445;-67
2022/04/18 04:39:22;;;;;;;3.20;2.87;;;;;;;5.82;52.36;96831.75;5033409;28;20186;-68
2022/04/18 04:41:47;;;;;;;3.93;2.63;;;;;;;6.03;51.59;96836.03;5032532;28;20427;-68
2022/04/18 04:44:12;;;;;;;3.77;2.60;;;;;;;6.03;51.08;96835.22;5032606;28;20387;-67
2022/04/18 04:46:38;;;;;;;3.95;2.90;;;;;;;6.27;50.34;96832.09;5015375;28;20423;-67
2022/04/18 04:49:03;;;;;;;4.53;2.77;;;;;;;6.22;50.57;96831.88;5032434;28;20754;-67
2022/04/18 04:51:29;;;;;;;3.30;2.85;;;;;;;6.29;49.93;96830.09;5032986;28;20425;-68
2022/04/18 04:53:54;;;;;;;2.70;2.50;;;;;;;6.13;50.76;96839.06;5032657;28;20391;-67
2022/04/18 04:56:24;;;;;;;3.50;2.60;;;;;;;6.31;49.84;96835.09;5033000;28;20403;-67
2022/04/18 04:58:50;;;;;;;3.83;2.63;;;;;;;6.48;49.82;96833.69;5032970;28;20391;-67
2022/04/18 05:01:16;;;;;;;2.92;2.58;;;;;;;6.58;49.65;96839.31;5032782;28;20410;-67
2022/04/18 05:03:41;;;;;;;3.10;2.80;;;;;;;6.96;48.88;96836.91;5032431;28;20500;-67
2022/04/18 05:06:07;;;;;;;3.75;2.83;;;;;;;7.42;47.62;96837.59;5032662;28;20877;-67
2022/04/18 05:08:32;;;;;;;4.00;2.80;;;;;;;7.76;46.87;96828.66;5032759;28;20492;-67
2022/04/18 05:11:01;;;;;;;3.57;2.70;;;;;;;7.79;46.57;96830.88;5032450;28;20403;-68
2022/04/18 05:13:27;;;;;;;3.87;2.60;;;;;;;8.17;45.34;96832.69;5032106;28;20391;-68
2022/04/18 05:15:52;;;;;;;2.72;2.53;;;;;;;8.19;45.00;96831.44;5032647;28;20816;-68
2022/04/18 05:18:17;;;;;;;4.00;2.87;;;;;;;8.42;44.78;96830.13;5032558;28;20423;-68
2022/04/18 05:20:45;;;;;;;2.80;2.60;;;;;;;8.72;43.92;96838.94;5032217;28;20399;-68
2022/04/18 05:23:12;;;;;;;3.38;2.67;;;;;;;8.42;44.39;96833.53;5032126;28;20394;-68
2022/04/18 05:25:37;;;;;;;3.78;2.60;;;;;;;8.44;44.10;96833.34;5031578;28;20426;-68
2022/04/18 05:28:03;;;;;;;2.60;2.40;;;;;;;8.55;44.13;96835.25;5032389;28;20468;-68
2022/04/18 05:30:29;;;;;;;3.15;2.55;;;;;;;8.59;44.20;96834.63;5031089;28;20421;-68
2022/04/18 05:32:54;;;;;;;2.72;2.47;;;;;;;8.68;43.73;96832.56;5031475;28;20395;-68
2022/04/18 05:35:20;;;;;;;3.00;2.70;;;;;;;8.45;44.28;96845.38;5031633;28;20765;-69
2022/04/18 05:37:46;;;;;;;3.03;2.70;;;;;;;8.68;43.81;96835.97;5014164;28;20399;-67
2022/04/18 05:40:12;;;;;;;3.15;2.50;;;;;;;8.47;44.29;96841.53;5031356;28;20414;-68
2022/04/18 05:42:37;;;;;;;2.97;2.60;;;;;;;8.14;44.36;96846.94;5031910;28;20399;-68
2022/04/18 05:45:03;;;;;;;4.25;2.60;;;;;;;8.59;43.93;96850.28;5031245;28;20466;-68
2022/04/18 05:47:29;;;;;;;2.85;2.60;;;;;;;8.48;44.09;96844.94;5014021;28;20403;-67
2022/04/18 05:49:54;;;;;;;3.37;2.57;;;;;;;8.65;44.02;96846.03;5031142;28;20405;-68
2022/04/18 05:52:20;;;;;;;2.70;2.50;;;;;;;9.01;43.30;96842.72;5031755;28;20426;-68
2022/04/18 05:54:45;;;;;;;2.90;2.60;;;;;;;9.04;43.67;96850.94;5013987;28;20403;-69
2022/04/18 05:57:11;;;;;;;3.43;2.90;;;;;;;9.13;43.52;96849.66;5031477;28;20391;-68
2022/04/18 05:59:36;;;;;;;4.93;2.65;;;;;;;9.23;43.32;96845.75;5031593;28;20470;-68
2022/04/18 06:02:02;;;;;;;3.93;2.60;;;;;;;9.09;44.04;96848.47;5031852;28;20788;-67
2022/04/18 06:04:27;;;;;;;3.33;2.70;;;;;;;9.21;43.73;96842.53;5031619;28;20410;-68
2022/04/18 06:06:52;;;;;;;4.60;2.95;;;;;;;9.21;44.33;96843.34;5031081;28;20446;-68
2022/04/18 06:09:18;;;;;;;3.47;3.00;;;;;;;8.94;44.35;96841.97;5014000;28;20410;-67
2022/04/18 06:11:43;;;;;;;4.22;3.08;;;;;;;8.63;45.01;96838.44;5032033;28;20440;-69
2022/04/18 06:14:09;;;;;;;4.53;3.00;;;;;;;8.73;43.95;96840.56;5031299;28;20402;-68
2022/04/18 06:16:34;;;;;;;3.53;3.07;;;;;;;9.25;43.84;96839.25;5031341;28;20429;-67
2022/04/18 06:18:59;;;;;;;4.37;3.00;;;;;;;8.86;44.44;96842.28;5013684;28;20390;-67
2022/04/18 06:21:25;;;;;;;4.33;3.10;;;;;;;9.16;44.54;96836.16;5030398;28;20398;-67
2022/04/18 06:23:50;;;;;;;3.80;3.10;;;;;;;9.66;44.06;96840.44;5031374;28;20386;-66
2022/04/18 06:26:16;;;;;;;3.60;3.30;;;;;;;9.17;43.97;96837.75;5030954;28;20824;-68
2022/04/18 06:28:41;;;;;;;3.93;3.10;;;;;;;9.50;43.80;96834.78;5031484;28;20399;-68
2022/04/18 06:31:06;;;;;;;5.20;3.30;;;;;;;9.52;43.54;96837.19;5031049;28;20395;-69
2022/04/18 06:33:34;;;;;;;4.13;3.43;;;;;;;9.77;42.78;96830.03;5031287;28;21076;-67
2022/04/18 06:36:01;;;;;;;5.03;3.60;;;;;;;9.98;43.07;96828.78;5031221;28;20478;-67
2022/04/18 06:38:28;;;;;;;4.15;3.15;;;;;;;10.50;42.77;96829.91;5030877;28;20395;-68
2022/04/18 06:40:54;;;;;;;3.90;3.30;;;;;;;10.60;42.51;96830.13;5013290;28;20395;-66
2022/04/18 06:43:20;;;;;;;3.88;3.40;;;;;;;10.81;42.20;96828.81;5030448;28;20476;-66
2022/04/18 06:45:45;;;;;;;4.38;3.42;;;;;;;10.09;42.96;96820.16;5031195;28;20403;-68
2022/04/18 06:48:11;;;;;;;4.43;3.07;;;;;;;10.07;43.67;96826.66;5031304;28;20390;-68
2022/04/18 06:50:36;;;;;;;3.80;3.20;;;;;;;10.68;42.73;96829.81;5030640;28;20747;-67
2022/04/18 06:53:01;;;;;;;3.40;3.07;;;;;;;10.41;43.37;96826.00;5030795;28;20469;-68
2022/04/18 06:55:27;;;;;;;4.28;3.20;;;;;;;9.99;43.78;96825.13;5031446;28;20406;-68
2022/04/18 06:58:12;;;;;;;3.88;3.13;;;;;;;10.59;43.69;96825.91;5030603;28;20399;-67
2022/04/18 07:00:37;;;;;;;4.40;3.53;;;;;;;10.92;42.72;96820.16;5030849;28;20533;-67
2022/04/18 07:03:04;;;;;;;5.22;3.60;;;;;;;11.46;41.87;96829.47;5034434;28;20442;-67
2022/04/18 07:05:29;;;;;;;4.32;3.00;;;;;;;11.47;41.59;96830.28;5034128;28;20421;-67
2022/04/18 07:07:54;;;;;;;3.57;3.13;;;;;;;11.41;42.28;96828.56;5016432;28;20387;-67
2022/04/18 07:10:20;;;;;;;3.67;3.37;;;;;;;10.92;42.59;96828.03;5034324;28;20919;-66
2022/04/18 07:12:45;;;;;;;4.57;3.43;;;;;;;10.87;42.67;96830.50;5034162;28;21156;-67
2022/04/18 07:15:10;;;;;;;4.90;3.37;;;;;;;10.52;42.15;96830.47;5034481;28;20394;-67
2022/04/18 07:17:35;;;;;;;6.10;3.50;;;;;;;10.53;43.53;96831.28;5034455;28;20479;-67
2022/04/18 07:20:01;;;;;;;3.83;3.10;;;;;;;10.78;43.12;96822.19;5034428;28;20387;-66
2022/04/18 07:22:26;;;;;;;4.72;3.38;;;;;;;10.58;43.78;96828.78;5034102;28;20399;-69
2022/04/18 07:24:51;;;;;;;4.03;3.37;;;;;;;10.73;42.28;96821.28;5034460;28;20892;-66
2022/04/18 07:27:17;;;;;;;3.70;3.30;;;;;;;10.92;42.85;96830.66;5034127;28;20916;-68
2022/04/18 07:29:42;;;;;;;3.80;3.40;;;;;;;11.46;42.25;96834.72;5034121;28;20403;-68
2022/04/18 07:32:08;;;;;;;3.63;3.30;;;;;;;11.45;42.07;96833.13;5034226;28;20457;-68
2022/04/18 07:34:34;;;;;;;4.97;3.40;;;;;;;11.23;41.43;96832.94;5033889;28;20394;-67
2022/04/18 07:37:00;;;;;;;4.35;3.22;;;;;;;11.50;42.17;96829.81;5033776;28;20407;-67
2022/04/18 07:39:25;;;;;;;5.00;3.35;;;;;;;11.83;41.39;96834.44;5033624;28;20460;-65
2022/04/18 07:41:50;;;;;;;3.33;3.03;;;;;;;11.73;40.57;96827.16;5033931;28;20432;-66
2022/04/18 07:44:16;;;;;;;3.70;3.40;;;;;;;11.40;41.25;96832.22;5034051;28;20391;-67
2022/04/18 07:46:42;;;;;;;5.10;3.60;;;;;;;11.45;40.33;96845.44;5033802;28;20414;-68
2022/04/18 07:49:07;;;;;;;3.83;3.50;;;;;;;11.10;40.45;96835.75;5016002;28;20387;-68
2022/04/18 07:51:36;;;;;;;3.60;3.20;;;;;;;10.87;41.48;96832.34;5016060;28;20446;-68
2022/04/18 07:54:10;;;;;;;3.63;3.08;;;;;;;11.68;39.96;96840.16;5032899;28;20403;-67
2022/04/18 07:56:36;;;;;;;4.32;3.17;;;;;;;13.29;56.43;96839.59;5033979;28;20399;-72
2022/04/18 07:59:02;;;;;;;3.80;3.30;;;;;;;13.98;39.22;96823.34;5033912;28;20418;-68
2022/04/18 08:01:28;;;;;;;3.77;3.13;;;;;;;12.83;38.21;96838.06;5034820;28;20505;-68
2022/04/18 08:03:54;;;;;;;5.97;3.40;;;;;;;11.82;39.44;96836.25;5034137;28;20238;-67
2022/04/18 08:06:20;;;;;;;4.00;3.23;;;;;;;12.03;39.63;96837.47;5034478;28;20256;-68
2022/04/18 08:08:46;;;;;;;6.17;3.20;;;;;;;12.36;39.43;96832.31;5034870;28;20637;-68
2022/04/18 08:11:14;;;;;;;3.50;3.20;;;;;;;12.45;39.58;96835.34;5035063;28;20660;-67
2022/04/18 08:13:40;;;;;;;3.43;3.10;;;;;;;12.35;39.51;96835.16;5034132;28;20186;-67
2022/04/18 08:16:06;;;;;;;4.00;3.27;;;;;;;11.87;39.88;96840.84;5034661;28;20206;-67
2022/04/18 08:18:31;;;;;;;3.23;2.97;;;;;;;12.09;40.32;96839.94;5034170;28;20213;-67
2022/04/18 08:20:58;;;;;;;4.83;3.20;;;;;;;12.11;39.88;96831.03;5034777;28;20673;-68
2022/04/18 08:23:24;;;;;;;3.53;2.70;;;;;;;11.82;39.93;96838.88;5034404;28;20225;-68
2022/04/18 08:25:49;;;;;;;4.17;3.10;;;;;;;12.16;40.06;96831.94;5034461;28;20203;-68
2022/04/18 08:28:14;;;;;;;3.80;3.20;;;;;;;12.52;39.12;96840.44;5034323;28;20187;-67
2022/04/18 08:30:40;;;;;;;3.43;3.13;;;;;;;12.18;39.21;96837.75;5034436;28;20194;-67
2022/04/18 08:33:05;;;;;;;3.17;2.87;;;;;;;12.35;39.85;96837.78;5034560;28;20187;-68
2022/04/18 08:35:32;;;;;;;4.33;3.13;;;;;;;11.92;40.14;96847.00;5034271;28;20186;-66
2022/04/18 08:38:00;;;;;;;3.30;3.00;;;;;;;12.02;40.30;96838.50;5033851;28;20228;-68
2022/04/18 08:40:25;;;;;;;4.57;2.70;;;;;;;12.19;39.81;96839.34;5015565;28;20289;-67
2022/04/18 08:42:55;;;;;;;4.37;3.10;;;;;;;12.22;39.08;96835.44;5033956;28;20325;-67
2022/04/18 08:45:23;;;;;;;3.90;2.80;;;;;;;12.42;39.38;96841.09;5034123;28;20198;-68
2022/04/18 08:53:25;;;;;;;3.90;3.40;;;;;;;12.37;39.27;96825.22;5033969;28;20284;-67
2022/04/18 08:55:51;;;;;;;3.07;2.77;;;;;;;12.42;39.51;96835.81;5033906;28;20202;-68
2022/04/18 08:58:16;;;;;;;3.20;2.90;;;;;;;12.39;39.92;96831.81;5033664;28;20257;-67
2022/04/18 09:00:42;;;;;;;3.60;3.23;;;;;;;12.64;39.49;96828.03;5033259;28;20187;-67
2022/04/18 09:03:07;;;;;;;4.33;3.40;;;;;;;12.80;38.84;96832.50;5033804;28;20275;-64
2022/04/18 09:05:37;;;;;;;4.07;2.70;;;;;;;12.76;38.94;96828.75;5033849;28;20209;-66
2022/04/18 09:08:05;;;;;;;4.03;3.23;;;;;;;12.69;39.99;96826.28;5033775;28;20189;-67
2022/04/18 09:10:31;;;;;;;3.97;2.90;;;;;;;12.85;39.36;96820.22;5033001;28;20683;-68
2022/04/18 09:13:09;;;;;;;4.67;3.27;;;;;;;12.89;39.16;96818.72;5033257;28;20190;-67
2022/04/18 09:15:43;;;;;;;3.27;2.90;;;;;;;12.79;38.49;96815.91;5033872;28;20304;-67
2022/04/18 09:18:10;;;;;;;5.03;3.07;;;;;;;12.69;39.19;96813.13;5033817;28;20191;-67
2022/04/18 09:20:42;;;;;;;4.93;3.23;;;;;;;12.68;38.86;96808.09;5029635;28;20191;-67
2022/04/18 09:23:25;;;;;;;3.90;3.00;;;;;;;12.69;38.49;96804.44;5031593;28;20202;-68
2022/04/18 09:25:59;;;;;;;5.23;2.80;;;;;;;12.86;38.04;96800.78;5027858;28;20198;-67
2022/04/18 09:28:27;;;;;;;4.00;3.17;;;;;;;12.55;38.40;96800.53;5029355;28;20186;-66
2022/04/18 09:31:00;;;;;;;3.57;3.00;;;;;;;12.79;38.83;96796.72;5031928;28;20266;-67
2022/04/18 09:33:45;;;;;;;4.40;3.20;;;;;;;12.95;38.25;96803.00;5031863;28;20185;-67
2022/04/18 09:36:17;;;;;;;3.10;2.80;;;;;;;13.03;38.46;96800.78;5032437;28;20182;-67
2022/04/18 09:38:44;;;;;;;3.30;2.87;;;;;;;13.19;37.90;96799.19;5032326;28;20175;-68
2022/04/18 09:41:14;;;;;;;3.77;2.83;;;;;;;13.29;37.52;96792.22;5025088;28;20183;-67
2022/04/18 09:43:43;;;;;;;3.60;3.03;;;;;;;13.14;37.34;96799.91;5029899;28;20190;-67
2022/04/18 09:46:09;;;;;;;4.77;3.00;;;;;;;13.04;37.88;96796.31;5031597;28;20672;-69
2022/04/18 09:48:35;;;;;;;5.93;3.03;;;;;;;13.06;37.61;96792.38;5032066;28;20285;-67
2022/04/18 09:51:08;;;;;;;3.40;3.10;;;;;;;13.30;37.02;96793.00;5032344;28;20547;-67
2022/04/18 09:53:33;;;;;;;3.27;2.93;;;;;;;13.36;36.98;96796.50;5033050;28;20241;-67
2022/04/18 09:55:58;;;;;;;4.30;3.20;;;;;;;13.31;36.85;96792.78;5015031;28;20198;-67
2022/04/18 09:58:25;;;;;;;3.43;2.83;;;;;;;12.31;37.29;96786.75;5032878;28;20269;-66
2022/04/18 10:00:50;;;;;;;3.30;3.00;;;;;;;12.46;37.89;96784.34;5032030;28;20186;-69
2022/04/18 10:03:17;;;;;;;3.73;2.80;;;;;;;12.82;38.10;96775.97;5032158;28;20319;-69
2022/04/18 10:05:43;;;;;;;3.10;2.70;;;;;;;13.05;37.38;96772.38;5032461;28;20209;-69
2022/04/18 10:08:08;;;;;;;3.60;2.90;;;;;;;13.23;37.76;96766.84;5032711;28;20174;-69
2022/04/18 10:10:41;;;;;;;5.07;2.80;;;;;;;13.39;36.54;96778.38;5032048;28;20265;-69
2022/04/18 10:13:08;;;;;;;4.70;2.93;;;;;;;12.85;36.07;96774.72;5027779;28;20167;-67
2022/04/18 10:15:39;;;;;;;4.50;2.70;;;;;;;13.18;36.71;96774.69;5032066;28;20237;-67
2022/04/18 10:18:10;;;;;;;4.13;2.90;;;;;;;13.52;36.67;96772.75;5017225;28;20194;-68
2022/04/18 10:20:51;;;;;;;3.37;3.00;;;;;;;13.64;36.44;96773.44;5032605;28;20178;-68
2022/04/18 10:23:34;;;;;;;3.23;2.87;;;;;;;13.69;36.06;96762.16;5025056;28;20198;-67
2022/04/18 10:26:24;;;;;;;4.50;2.93;;;;;;;13.67;35.15;96758.97;5031759;28;20221;-67
2022/04/18 10:28:53;;;;;;;3.13;2.60;;;;;;;13.61;35.42;96757.31;5032275;28;20642;-67
2022/04/18 10:31:31;;;;;;;3.70;2.70;;;;;;;13.33;36.25;96758.28;5031993;28;20214;-68
2022/04/18 10:33:57;;;;;;;4.40;2.80;;;;;;;13.78;36.34;96751.97;5014126;28;20265;-67
2022/04/18 10:36:34;;;;;;;3.53;3.03;;;;;;;13.83;35.80;96757.28;5016610;28;20245;-67
2022/04/18 10:39:07;;;;;;;4.53;3.30;;;;;;;13.80;35.87;96748.06;5035817;28;20174;-67
2022/04/18 10:41:37;;;;;;;2.90;2.70;;;;;;;13.55;35.14;96758.28;5032243;28;20201;-66
2022/04/18 10:44:11;;;;;;;4.23;2.93;;;;;;;13.27;35.82;96754.00;5021345;28;20179;-65
2022/04/18 10:47:03;;;;;;;5.60;2.87;;;;;;;13.25;35.88;96754.25;5036220;28;20241;-65
2022/04/18 10:49:31;;;;;;;4.20;3.33;;;;;;;13.51;36.32;96744.81;5035892;28;20574;-65
2022/04/18 10:51:57;;;;;;;3.50;3.07;;;;;;;13.55;36.49;96745.91;5018712;28;20544;-65
2022/04/18 10:54:33;;;;;;;4.87;3.03;;;;;;;13.59;35.02;96744.41;4998490;28;20517;-66
2022/04/18 10:57:06;;;;;;;3.33;2.83;;;;;;;13.43;35.33;96742.59;5032561;28;20588;-66
2022/04/18 10:59:33;;;;;;;5.37;2.87;;;;;;;13.99;36.00;96745.84;5036179;28;20195;-66
2022/04/18 11:02:04;;;;;;;4.43;2.83;;;;;;;14.09;35.89;96740.69;5018167;28;20195;-69
2022/04/18 11:04:53;;;;;;;3.27;2.90;;;;;;;14.26;35.26;96740.59;5018046;28;20711;-66
2022/04/18 11:07:18;;;;;;;3.43;3.13;;;;;;;14.49;34.56;96737.63;5035922;28;20256;-68
2022/04/18 11:09:45;;;;;;;3.23;2.93;;;;;;;14.30;35.23;96733.75;5035670;28;20182;-66
2022/04/18 11:12:19;;;;;;;3.57;3.00;;;;;;;14.43;35.36;96738.66;5032867;28;20206;-66
2022/04/18 11:15:00;;;;;;;3.63;3.00;;;;;;;13.98;34.73;96725.84;5035114;28;20163;-65
2022/04/18 11:17:30;;;;;;;3.60;2.83;;;;;;;14.04;34.91;96725.59;5035810;28;20206;-65
2022/04/18 11:19:56;;;;;;;4.20;3.00;;;;;;;14.19;35.34;96708.34;5017918;28;20213;-65
2022/04/18 11:22:23;;;;;;;4.00;3.10;;;;;;;14.37;34.93;96722.00;5035257;28;20661;-66
2022/04/18 11:24:48;;;;;;;3.90;2.90;;;;;;;14.46;34.70;96715.19;5017116;28;20183;-66
2022/04/18 11:27:13;;;;;;;4.13;2.83;;;;;;;14.66;34.55;96717.19;5028314;28;20607;-65
2022/04/18 11:29:41;;;;;;;3.50;3.13;;;;;;;14.45;34.52;96716.25;5017680;28;20193;-65
2022/04/18 11:32:07;;;;;;;5.20;2.70;;;;;;;14.80;34.71;96722.81;5033104;28;20182;-66
2022/04/18 11:34:35;;;;;;;3.33;2.87;;;;;;;14.39;34.25;96709.34;5033116;28;20190;-67
2022/04/18 11:37:05;;;;;;;3.47;2.73;;;;;;;14.12;34.51;96709.34;5016434;28;20217;-67
2022/04/18 11:39:44;;;;;;;3.37;3.07;;;;;;;14.21;34.90;96701.00;5033258;28;20194;-66
2022/04/18 11:42:23;;;;;;;3.87;2.90;;;;;;;14.50;35.05;96702.28;5034574;28;20183;-66
2022/04/18 11:44:49;;;;;;;3.60;2.90;;;;;;;14.43;35.32;96696.47;5033187;28;20261;-65
2022/04/18 11:47:27;;;;;;;3.00;2.73;;;;;;;14.44;34.69;96700.66;5032129;28;20194;-67
2022/04/18 11:49:58;;;;;;;3.23;2.93;;;;;;;14.65;34.52;96691.88;5035018;28;20704;-66
2022/04/18 11:52:30;;;;;;;4.43;2.90;;;;;;;14.40;34.59;96699.59;5035048;28;20186;-66